createdAt,value
2018-12-31T18:10:56.351Z,26.70
2018-12-31T18:13:26.743Z,32.23
2018-12-31T18:15:57.187Z,35.23
2018-12-31T18:18:29.491Z,23.43
2018-12-31T18:20:59.902Z,26.57
2018-12-31T18:23:30.286Z,30.33
2018-12-31T18:26:18.172Z,70.83
2018-12-31T18:28:48.630Z,79.30
2018-12-31T18:31:23.573Z,73.07
2018-12-31T18:33:50.945Z,42.60
2018-12-31T18:36:21.555Z,63.95
2018-12-31T18:38:52.907Z,86.67
2018-12-31T18:41:31.905Z,60.87
2018-12-31T18:44:02.424Z,53.93
2018-12-31T18:46:33.187Z,58.93
2018-12-31T18:49:03.605Z,167.80
2018-12-31T18:51:33.978Z,79.00
2018-12-31T18:54:04.437Z,85.17
2018-12-31T18:56:34.779Z,32.47
2018-12-31T18:59:04.926Z,57.33
2018-12-31T19:01:44.104Z,75.17
2018-12-31T19:04:15.906Z,80.07
2018-12-31T19:06:46.167Z,28.17
2018-12-31T19:09:16.590Z,89.22
2018-12-31T19:11:46.953Z,45.30
2018-12-31T19:14:17.480Z,43.87
2018-12-31T19:16:47.859Z,44.03
2018-12-31T19:19:18.403Z,38.58
2018-12-31T19:21:48.710Z,54.33
2018-12-31T19:24:19.087Z,91.60
2018-12-31T19:26:49.398Z,86.50
2018-12-31T19:29:19.774Z,43.27
2018-12-31T19:31:50.366Z,76.27
2018-12-31T19:34:22.014Z,59.70
2018-12-31T19:36:52.393Z,55.37
2018-12-31T19:39:22.598Z,29.07
2018-12-31T19:41:53.029Z,79.83
2018-12-31T19:44:23.346Z,41.58
2018-12-31T19:47:01.151Z,24.57
2018-12-31T19:49:31.495Z,44.03
2018-12-31T19:52:01.883Z,34.10
2018-12-31T19:54:32.297Z,34.13
2018-12-31T19:57:02.717Z,32.37
2018-12-31T19:59:32.939Z,27.27
2018-12-31T20:02:03.324Z,32.77
2018-12-31T20:04:33.611Z,27.37
2018-12-31T20:07:21.820Z,30.68
2018-12-31T20:09:52.286Z,27.07
2018-12-31T20:12:22.518Z,24.55
2018-12-31T20:14:52.734Z,26.60
2018-12-31T20:17:22.968Z,32.60
2018-12-31T20:19:53.354Z,24.33
2018-12-31T20:22:23.732Z,21.73
2018-12-31T20:24:54.096Z,34.27
2018-12-31T20:27:31.869Z,31.47
2018-12-31T20:30:02.123Z,43.13
2018-12-31T20:32:32.497Z,46.40
2018-12-31T20:35:02.792Z,28.03
2018-12-31T20:37:33.410Z,32.63
2018-12-31T20:40:03.679Z,32.33
2018-12-31T20:42:33.966Z,24.93
2018-12-31T20:45:06.646Z,22.30
2018-12-31T20:48:01.513Z,25.23
2018-12-31T20:50:26.330Z,23.87
2018-12-31T20:52:56.652Z,24.57
2018-12-31T20:55:26.966Z,22.80
2018-12-31T20:57:57.235Z,23.73
2018-12-31T21:00:27.441Z,25.50
2018-12-31T21:02:57.767Z,29.17
2018-12-31T21:05:36.612Z,26.37
2018-12-31T21:08:06.868Z,39.07
2018-12-31T21:10:37.159Z,22.00
2018-12-31T21:13:07.621Z,36.40
2018-12-31T21:15:37.900Z,31.97
2018-12-31T21:18:08.250Z,26.43
2018-12-31T21:20:38.608Z,32.50
2018-12-31T21:23:08.967Z,45.87
2018-12-31T21:25:39.337Z,87.67
2018-12-31T21:28:20.899Z,32.17
2018-12-31T21:30:51.182Z,37.00
2018-12-31T21:33:21.361Z,38.30
2018-12-31T21:35:51.702Z,29.23
2018-12-31T21:38:23.736Z,23.93
2018-12-31T21:40:54.284Z,23.03
2018-12-31T21:43:25.014Z,41.28
2018-12-31T21:45:55.384Z,23.83
2018-12-31T21:48:29.720Z,22.50
2018-12-31T21:51:00.049Z,22.70
2018-12-31T21:53:30.415Z,21.97
2018-12-31T21:56:00.856Z,23.57
2018-12-31T21:58:31.253Z,26.97
2018-12-31T22:01:01.797Z,26.77
2018-12-31T22:03:32.003Z,37.27
2018-12-31T22:06:08.728Z,40.03
2018-12-31T22:08:44.966Z,52.60
2018-12-31T22:11:15.398Z,32.40
2018-12-31T22:13:45.651Z,33.63
2018-12-31T22:16:16.097Z,33.45
2018-12-31T22:18:46.369Z,41.60
2018-12-31T22:21:16.743Z,64.67
2018-12-31T22:23:46.995Z,61.73
2018-12-31T22:26:17.420Z,30.80
2018-12-31T22:28:53.890Z,32.53
2018-12-31T22:31:24.148Z,40.67
2018-12-31T22:33:54.452Z,45.10
2018-12-31T22:36:24.821Z,42.13
2018-12-31T22:38:55.568Z,45.17
2018-12-31T22:41:25.769Z,45.43
2018-12-31T22:43:55.953Z,48.53
2018-12-31T22:46:26.317Z,41.53
2018-12-31T22:48:56.697Z,32.23
2018-12-31T22:51:29.667Z,31.30
2018-12-31T22:54:02.419Z,29.43
2018-12-31T22:56:32.742Z,30.40
2018-12-31T22:59:03.098Z,28.97
2018-12-31T23:01:33.669Z,49.60
2018-12-31T23:04:04.063Z,27.83
2018-12-31T23:06:34.478Z,394.20
2018-12-31T23:09:07.949Z,355.57
2018-12-31T23:11:49.968Z,513.10
2018-12-31T23:14:20.385Z,468.75
2018-12-31T23:17:02.317Z,481.53
2018-12-31T23:19:32.681Z,475.50
2018-12-31T23:22:03.017Z,261.93
2018-12-31T23:24:33.274Z,290.43
2018-12-31T23:27:04.054Z,150.07
2018-12-31T23:29:51.822Z,118.07
2018-12-31T23:32:22.088Z,156.70
2018-12-31T23:34:52.242Z,106.87
2018-12-31T23:37:22.631Z,111.32
2018-12-31T23:39:52.974Z,97.70
2018-12-31T23:42:23.283Z,90.77
2018-12-31T23:44:55.473Z,130.25
2018-12-31T23:47:33.239Z,98.33
2018-12-31T23:50:03.540Z,72.83
2018-12-31T23:52:33.758Z,69.70
2018-12-31T23:55:04.056Z,63.80
2018-12-31T23:57:34.335Z,46.93
